CYSN

St Catharines / Niagara District Airport

St Catharines, , Canada
TAF CYSN 181238Z 1813/1901 23010KT P6SM FEW030 BKN250 BECMG 1813/1815 25015G25KT FM181700 26018G28KT P6SM BKN050 PROB30 1817/1824 VRB20G30KT 1SM +TSRA BR BKN020 OVC050CB FM190000 33012G22KT P6SM -SHRA BKN070 PROB30 1900/1901 VRB20G30KT 1SM +SHRA BR BKN020 OVC050CB RMK NXT FCST BY 182000Z
Issued Valid From Valid To
Jun-18 @ 12:38 UTC
(43 minutes ago)
Jun-18 @ 13:00 UTC
(21 minutes ago)
Jun-19 @ 01:00 UTC
(in 12 hours)
Jun-18 @ 13:00 to Jun-19 @ 01:00
TAF CYSN 181238Z 1813/1901 23010KT P6SM FEW030 BKN250
Wind Visibility Clouds
230° at 10 knots Greater than 6 miles
  • Few at 3,000' AGL
  • Broken at 25,000' AGL
Becoming Jun-18 @ 13:00 to Jun-18 @ 17:00
BECMG 1813/1815 25015G25KT
Wind Visibility Clouds
250° at 15 knots
 Gusting to 25 knots
Greater than 6 miles
  • Few at 3,000' AGL
  • Broken at 25,000' AGL
From Jun-18 @ 17:00 to Jun-19 @ 00:00
FM181700 26018G28KT P6SM BKN050
Wind Visibility Clouds
260° at 18 knots
 Gusting to 28 knots
Greater than 6 miles
  • Broken at 5,000' AGL
Probable  (Probability 30%) Jun-18 @ 17:00 to Jun-19 @ 00:00
PROB30 1817/1824 VRB20G30KT 1SM +TSRA BR BKN020 OVC050CB
Wind Visibility Clouds Conditions
Variable at 20 knots
 Gusting to 30 knots
1 miles
  • Broken at 2,000' AGL
  • Overcast at 5,000' AGL
  • Heavy Thunderstorm
  • Heavy Rain
  • Mist
From Jun-19 @ 00:00 to Jun-19 @ 01:00
FM190000 33012G22KT P6SM -SHRA BKN070
Wind Visibility Clouds Conditions
330° at 12 knots
 Gusting to 22 knots
Greater than 6 miles
  • Broken at 7,000' AGL
  • Light Rain
Probable  (Probability 30%) Jun-19 @ 00:00 to Jun-19 @ 01:00
PROB30 1900/1901 VRB20G30KT 1SM +SHRA BR BKN020 OVC050CB RMK NXT FCST BY 182000Z
Wind Visibility Clouds Conditions
Variable at 20 knots
 Gusting to 30 knots
1 miles
  • Broken at 2,000' AGL
  • Overcast at 5,000' AGL
  • Heavy Rain
  • Mist
TAF CYSN 181238Z 1813/1901 23010KT P6SM FEW030 BKN250 BECMG 1813/1815 25015G25KT FM181700 26018G28KT P6SM BKN050 PROB30 1817/1824 VRB20G30KT 1SM +TSRA BR BKN020 OVC050CB FM190000 33012G22KT P6SM -SHRA BKN070 PROB30 1900/1901 VRB20G30KT 1SM +SHRA BR BKN020 OVC050CB RMK NXT FCST BY 182000Z
Issued Jun-18 @ 12:38 UTC
(43 minutes ago)
Valid From Jun-18 @ 13:00 UTC
(21 minutes ago)
Valid To Jun-19 @ 01:00 UTC
(in 12 hours)
Jun-18 @ 13:00 - Jun-19 @ 01:00
Wind Visibility
230° at 10 knots Greater than 6 miles
Clouds
  • Few at 3,000' AGL
  • Broken at 25,000' AGL
Becoming Jun-18 @ 13:00 - Jun-18 @ 17:00
Wind Visibility
250° at 15 knots
 Gusting to 25 knots
Greater than 6 miles
Clouds
  • Few at 3,000' AGL
  • Broken at 25,000' AGL
From Jun-18 @ 17:00 - Jun-19 @ 00:00
Wind Visibility
260° at 18 knots
 Gusting to 28 knots
Greater than 6 miles
Clouds
  • Broken at 5,000' AGL
Probability 30% Probable Jun-18 @ 17:00 - Jun-19 @ 00:00
Wind Visibility
Variable at 20 knots
 Gusting to 30 knots
1 miles
Clouds
  • Broken at 2,000' AGL
  • Overcast at 5,000' AGL
Conditions
  • Heavy Thunderstorm
  • Heavy Rain
  • Mist
From Jun-19 @ 00:00 - Jun-19 @ 01:00
Wind Visibility
330° at 12 knots
 Gusting to 22 knots
Greater than 6 miles
Clouds
  • Broken at 7,000' AGL
Conditions
  • Light Rain
Probability 30% Probable Jun-19 @ 00:00 - Jun-19 @ 01:00
Wind Visibility
Variable at 20 knots
 Gusting to 30 knots
1 miles
Clouds
  • Broken at 2,000' AGL
  • Overcast at 5,000' AGL
Conditions
  • Heavy Rain
  • Mist